Irene, Mississippi
Current Conditions -  °F | °C
As of 11:53 PM on Wednesday 22 Oct 2014 (Local Time) from KMCB Reporting Station
Clear Clear  
Wind Chill: 58°   Ceiling: Unl
Heat Index: 58°   Visibility: 10mi
Dew Point: 48°   Wind: 5mph
Humidity: 70%   Direction: 20°NNE
Pressure: 30.11"   Gusts: NA
Location:  31.2993°N, 90.4958°W
Report Text: KMCB 230453Z AUTO 02004KT 10SM CLR 14/09 A3011 RMK AO2 SLP193 T01440089
Loading
Personal Weather Stations






























Interactive Weather Map
Tropical Storm Tracking
New forecast layout! Learn more

10-Day Weather Forecast

Advertisements
Track Severe Weather on mobile